Time;durP1;ratioP1;P1;durP2;ratioP2;P2;SDS_P1;SDS_P2;PMS_P1;PMS_P2;Temp;Humidity;BMP_temperature;BMP_pressure;BME280_temperature;BME280_humidity;BME280_pressure;Samples;Min_cycle;Max_cycle;Signal;HPM_P1;HPM_P2
2022/08/15 00:00:08;;;;;;;;;;;23.70;99.90;;;;;;5156429;27;19931;-74
2022/08/15 00:02:33;;;;;;;;;;;23.70;99.90;;;;;;5138264;27;19923;-71
2022/08/15 00:05:01;;;;;;;;;;;23.60;99.90;;;;;;5156478;27;20374;-71
2022/08/15 00:07:26;;;;;;;;;;;23.60;99.90;;;;;;5156496;27;19927;-75
2022/08/15 00:09:52;;;;;;;;;;;23.50;99.90;;;;;;5156356;27;20396;-72
2022/08/15 00:12:17;;;;;;;;;;;23.50;99.90;;;;;;5156181;27;20019;-71
2022/08/15 00:14:44;;;;;;;;;;;23.50;99.90;;;;;;5155698;27;19923;-72
2022/08/15 00:17:10;;;;;;;;;;;23.50;99.90;;;;;;5156025;27;19923;-75
2022/08/15 00:19:40;;;;;;;;;;;23.50;99.90;;;;;;5156306;27;19923;-72
2022/08/15 00:22:07;;;;;;;;;;;22.90;99.90;;;;;;5156126;27;20422;-74
2022/08/15 00:24:34;;;;;;;;;;;23.50;99.90;;;;;;5156055;27;19976;-71
2022/08/15 00:27:01;;;;;;;;;;;23.40;99.90;;;;;;5155854;27;19974;-74
2022/08/15 00:29:28;;;;;;;;;;;23.40;99.90;;;;;;5155917;27;19968;-72
2022/08/15 00:31:53;;;;;;;;;;;23.40;99.90;;;;;;5155872;27;19927;-73
2022/08/15 00:34:20;;;;;;;;;;;23.40;99.90;;;;;;5171474;27;20331;-73
2022/08/15 00:36:49;;;;;;;;;;;23.40;99.90;;;;;;5155620;27;19968;-72
2022/08/15 00:39:17;;;;;;;;;;;23.40;99.90;;;;;;5155756;27;20395;-75
2022/08/15 00:41:43;;;;;;;;;;;23.40;99.90;;;;;;5155721;27;19923;-74
2022/08/15 00:44:09;;;;;;;;;;;23.30;99.90;;;;;;5137384;27;19923;-73
2022/08/15 00:46:35;;;;;;;;;;;23.20;99.90;;;;;;5155475;27;19923;-72
2022/08/15 00:49:01;;;;;;;;;;;23.10;99.90;;;;;;5155447;27;20021;-74
2022/08/15 00:51:30;;;;;;;;;;;23.10;99.90;;;;;;5137347;27;19977;-71
2022/08/15 00:53:58;;;;;;;;;;;23.00;99.90;;;;;;5155710;27;19930;-72
2022/08/15 00:56:25;;;;;;;;;;;22.90;99.90;;;;;;5155575;27;19927;-71
2022/08/15 00:58:51;;;;;;;;;;;22.90;99.90;;;;;;5154284;27;20478;-73
2022/08/15 01:01:17;;;;;;;;;;;22.80;99.90;;;;;;5155361;27;20021;-73
2022/08/15 01:03:44;;;;;;;;;;;22.70;99.90;;;;;;5155613;27;20014;-71
2022/08/15 01:06:10;;;;;;;;;;;22.70;99.90;;;;;;5171717;27;19947;-72
2022/08/15 01:08:38;;;;;;;;;;;22.60;99.90;;;;;;5155418;27;19966;-74
2022/08/15 01:11:06;;;;;;;;;;;22.60;99.90;;;;;;5155403;27;19923;-72
2022/08/15 01:13:33;;;;;;;;;;;22.50;99.90;;;;;;5155532;27;19978;-71
2022/08/15 01:15:59;;;;;;;;;;;22.50;99.90;;;;;;5137061;27;20377;-74
2022/08/15 01:18:24;;;;;;;;;;;22.50;99.90;;;;;;5136739;27;19934;-72
2022/08/15 01:20:51;;;;;;;;;;;22.50;99.90;;;;;;5155452;27;19929;-72
2022/08/15 01:23:23;;;;;;;;;;;22.50;99.90;;;;;;5155438;27;19927;-71
2022/08/15 01:25:53;;;;;;;;;;;22.50;99.90;;;;;;5155220;27;19923;-74
2022/08/15 01:28:21;;;;;;;;;;;22.40;99.90;;;;;;5159253;27;20382;-71
2022/08/15 01:30:47;;;;;;;;;;;22.40;99.90;;;;;;5159290;27;19924;-73
2022/08/15 01:33:13;;;;;;;;;;;22.40;99.90;;;;;;5158359;27;19930;-71
2022/08/15 01:35:39;;;;;;;;;;;22.40;99.90;;;;;;5159478;27;19968;-72
2022/08/15 01:38:15;;;;;;;;;;;22.30;99.90;;;;;;5140556;27;19922;-71
2022/08/15 01:40:59;;;;;;;;;;;22.30;99.90;;;;;;5159261;27;19923;-71
2022/08/15 01:43:26;;;;;;;;;;;22.30;99.90;;;;;;5174829;27;19923;-74
2022/08/15 01:45:53;;;;;;;;;;;22.30;99.90;;;;;;5159179;27;19931;-71
2022/08/15 01:48:25;;;;;;;;;;;22.20;99.90;;;;;;5159241;27;19927;-72
2022/08/15 01:50:53;;;;;;;;;;;22.10;99.90;;;;;;5159144;27;19930;-71
2022/08/15 01:53:27;;;;;;;;;;;21.80;99.90;;;;;;5158991;27;19923;-71
2022/08/15 01:55:59;;;;;;;;;;;22.10;99.90;;;;;;5158883;27;19929;-74
2022/08/15 01:58:25;;;;;;;;;;;22.00;99.90;;;;;;5158974;27;20274;-71
2022/08/15 02:00:55;;;;;;;;;;;22.00;99.90;;;;;;5159055;27;20025;-74
2022/08/15 02:03:33;;;;;;;;;;;22.00;99.90;;;;;;5140412;27;20162;-73
2022/08/15 02:06:03;;;;;;;;;;;21.90;99.90;;;;;;5158723;27;20013;-71
2022/08/15 02:08:29;;;;;;;;;;;22.00;99.90;;;;;;5158673;27;20049;-70
2022/08/15 02:10:54;;;;;;;;;;;22.00;99.90;;;;;;5158515;27;19996;-71
2022/08/15 02:13:20;;;;;;;;;;;21.60;99.90;;;;;;5158243;27;19923;-71
2022/08/15 02:15:46;;;;;;;;;;;22.00;99.90;;;;;;5158600;27;19922;-71
2022/08/15 02:18:12;;;;;;;;;;;21.90;99.90;;;;;;5140098;27;20025;-71
2022/08/15 02:20:37;;;;;;;;;;;21.90;99.90;;;;;;5158477;27;20301;-73
2022/08/15 02:23:03;;;;;;;;;;;21.90;99.90;;;;;;5158337;27;19923;-74
2022/08/15 02:25:29;;;;;;;;;;;21.90;99.90;;;;;;5174309;27;19930;-71
2022/08/15 02:27:55;;;;;;;;;;;21.90;99.90;;;;;;5174926;27;19967;-73
2022/08/15 02:30:21;;;;;;;;;;;21.90;99.90;;;;;;5158390;27;19923;-71
2022/08/15 02:32:47;;;;;;;;;;;21.90;99.90;;;;;;5139973;27;19923;-70
2022/08/15 02:35:14;;;;;;;;;;;21.90;99.90;;;;;;5158202;27;19923;-71
2022/08/15 02:37:40;;;;;;;;;;;21.70;99.90;;;;;;5157592;27;19945;-71
2022/08/15 02:40:08;;;;;;;;;;;21.90;99.90;;;;;;5157888;27;20428;-75
2022/08/15 02:42:35;;;;;;;;;;;21.80;99.90;;;;;;5139459;27;19971;-72
2022/08/15 02:45:01;;;;;;;;;;;21.80;99.90;;;;;;5139780;27;20385;-74
2022/08/15 02:47:27;;;;;;;;;;;21.90;99.90;;;;;;5157994;27;19978;-71
2022/08/15 02:49:53;;;;;;;;;;;21.90;99.90;;;;;;5157853;27;19923;-71
2022/08/15 02:52:18;;;;;;;;;;;21.90;99.90;;;;;;5157840;27;19968;-71
2022/08/15 02:54:44;;;;;;;;;;;21.90;99.90;;;;;;5139545;27;19930;-75
2022/08/15 02:57:10;;;;;;;;;;;21.90;99.90;;;;;;5139633;27;19975;-72
2022/08/15 02:59:35;;;;;;;;;;;21.90;99.90;;;;;;5139605;27;19923;-71
2022/08/15 03:02:01;;;;;;;;;;;21.90;99.90;;;;;;5157792;27;19923;-71
2022/08/15 03:04:30;;;;;;;;;;;21.80;99.90;;;;;;5174148;27;19931;-73
2022/08/15 03:06:56;;;;;;;;;;;21.80;99.90;;;;;;5157430;27;20362;-70
2022/08/15 03:09:22;;;;;;;;;;;21.80;99.90;;;;;;5157429;27;19934;-73
2022/08/15 03:11:48;;;;;;;;;;;21.80;99.90;;;;;;5138832;27;20013;-71
2022/08/15 03:14:16;;;;;;;;;;;21.70;99.90;;;;;;5157505;27;19923;-71
2022/08/15 03:16:44;;;;;;;;;;;21.70;99.90;;;;;;5138923;27;20502;-72
2022/08/15 03:19:11;;;;;;;;;;;21.70;99.90;;;;;;5157340;27;19929;-71
2022/08/15 03:21:37;;;;;;;;;;;21.70;99.90;;;;;;5157253;27;20404;-73
2022/08/15 03:24:03;;;;;;;;;;;21.60;99.90;;;;;;5138926;27;19927;-73
2022/08/15 03:26:30;;;;;;;;;;;21.60;99.90;;;;;;5156960;27;19929;-74
2022/08/15 03:28:56;;;;;;;;;;;21.60;99.90;;;;;;5157249;27;19923;-71
2022/08/15 03:31:22;;;;;;;;;;;21.60;99.90;;;;;;5138997;27;20333;-72
2022/08/15 03:33:48;;;;;;;;;;;21.60;99.90;;;;;;5157111;27;19969;-72
2022/08/15 03:36:15;;;;;;;;;;;21.60;99.90;;;;;;5156959;27;20281;-71
2022/08/15 03:38:41;;;;;;;;;;;21.60;99.90;;;;;;5138730;27;20444;-71
2022/08/15 03:41:08;;;;;;;;;;;21.60;99.90;;;;;;5155125;27;20018;-71
2022/08/15 03:43:36;;;;;;;;;;;21.60;99.90;;;;;;5156838;27;19974;-71
2022/08/15 03:46:03;;;;;;;;;;;21.60;99.90;;;;;;5156799;27;19930;-71
2022/08/15 03:48:31;;;;;;;;;;;21.50;99.90;;;;;;5138429;27;19931;-71
2022/08/15 03:50:58;;;;;;;;;;;21.60;99.90;;;;;;5156255;27;19923;-73
2022/08/15 03:53:24;;;;;;;;;;;21.50;99.90;;;;;;5156587;27;19931;-72
2022/08/15 03:55:49;;;;;;;;;;;21.50;99.90;;;;;;5156483;27;19923;-71
2022/08/15 03:58:15;;;;;;;;;;;21.50;99.90;;;;;;5156857;27;19923;-71
2022/08/15 04:00:44;;;;;;;;;;;21.50;99.90;;;;;;5137347;27;19923;-71
2022/08/15 04:03:15;;;;;;;;;;;21.50;99.90;;;;;;5156542;27;19923;-71
2022/08/15 04:05:42;;;;;;;;;;;21.40;99.90;;;;;;5156343;27;20022;-73
2022/08/15 04:08:09;;;;;;;;;;;21.30;99.90;;;;;;5137941;27;19926;-71
2022/08/15 04:10:36;;;;;;;;;;;21.30;99.90;;;;;;5156155;27;19978;-72
2022/08/15 04:13:01;;;;;;;;;;;20.60;99.90;;;;;;5156263;27;19929;-73
2022/08/15 04:15:27;;;;;;;;;;;21.20;99.90;;;;;;5156290;27;20292;-71
2022/08/15 04:17:53;;;;;;;;;;;21.10;99.90;;;;;;5156193;27;20297;-71
2022/08/15 04:20:19;;;;;;;;;;;21.10;99.90;;;;;;5155258;27;20022;-71
2022/08/15 04:22:47;;;;;;;;;;;21.00;99.90;;;;;;5137896;27;19973;-72
2022/08/15 04:25:13;;;;;;;;;;;21.00;99.90;;;;;;5137596;27;19923;-71
2022/08/15 04:27:39;;;;;;;;;;;21.00;99.90;;;;;;5137843;27;19930;-74
2022/08/15 04:30:05;;;;;;;;;;;20.90;99.90;;;;;;5137873;27;19930;-75
2022/08/15 04:32:30;;;;;;;;;;;20.90;99.90;;;;;;5155955;27;19923;-72
2022/08/15 04:34:58;;;;;;;;;;;20.90;99.90;;;;;;5155899;27;19929;-74
2022/08/15 04:37:23;;;;;;;;;;;20.90;99.90;;;;;;5155991;27;19923;-71
2022/08/15 04:39:50;;;;;;;;;;;20.90;99.90;;;;;;5155538;27;19923;-75
2022/08/15 04:42:18;;;;;;;;;;;20.90;99.90;;;;;;5155742;27;19923;-75
2022/08/15 04:44:45;;;;;;;;;;;20.90;99.90;;;;;;5155757;27;19931;-71
2022/08/15 04:47:11;;;;;;;;;;;20.90;99.90;;;;;;5137082;27;20457;-71
2022/08/15 04:49:36;;;;;;;;;;;20.90;99.90;;;;;;5137538;27;20018;-71
2022/08/15 04:52:08;;;;;;;;;;;20.90;99.90;;;;;;5137426;27;19931;-71
2022/08/15 04:54:34;;;;;;;;;;;20.80;99.90;;;;;;5155469;27;20263;-71
2022/08/15 04:57:00;;;;;;;;;;;20.90;99.90;;;;;;5155688;27;19923;-73
2022/08/15 04:59:26;;;;;;;;;;;20.90;99.90;;;;;;5155514;27;20006;-71
2022/08/15 05:01:51;;;;;;;;;;;21.00;99.90;;;;;;5155588;27;19988;-72
2022/08/15 05:04:17;;;;;;;;;;;21.00;99.90;;;;;;5155451;27;19965;-72
2022/08/15 05:06:43;;;;;;;;;;;21.00;99.90;;;;;;5155221;27;19923;-71
2022/08/15 05:09:08;;;;;;;;;;;21.10;99.90;;;;;;5171739;27;19923;-75
2022/08/15 05:11:34;;;;;;;;;;;20.90;99.90;;;;;;5155799;27;19923;-71
2022/08/15 05:13:59;;;;;;;;;;;21.10;99.90;;;;;;5155531;27;19927;-71
2022/08/15 05:16:25;;;;;;;;;;;21.10;99.90;;;;;;5155282;27;20393;-71
2022/08/15 05:18:51;;;;;;;;;;;21.10;99.90;;;;;;5155407;27;19923;-71
2022/08/15 05:21:16;;;;;;;;;;;21.10;99.90;;;;;;5155339;27;19930;-71
2022/08/15 05:23:42;;;;;;;;;;;21.20;99.90;;;;;;5155177;27;20327;-73
2022/08/15 05:26:09;;;;;;;;;;;21.20;99.90;;;;;;5155061;27;19923;-75
2022/08/15 05:28:35;;;;;;;;;;;21.20;99.90;;;;;;5155260;27;20018;-70
2022/08/15 05:31:02;;;;;;;;;;;21.20;99.90;;;;;;5155338;27;19977;-75
2022/08/15 05:33:29;;;;;;;;;;;21.20;99.90;;;;;;5155179;27;19975;-71
2022/08/15 05:35:56;;;;;;;;;;;21.30;99.90;;;;;;5154988;27;19927;-71
2022/08/15 05:38:23;;;;;;;;;;;21.30;99.90;;;;;;5155111;27;19931;-72
2022/08/15 05:40:53;;;;;;;;;;;21.40;99.90;;;;;;5136778;27;19923;-71
2022/08/15 05:43:29;;;;;;;;;;;21.40;99.90;;;;;;5155130;27;19923;-73
2022/08/15 05:46:01;;;;;;;;;;;21.40;99.90;;;;;;5155099;27;20016;-74
2022/08/15 05:48:29;;;;;;;;;;;21.40;99.90;;;;;;5136842;27;20030;-71
2022/08/15 05:50:57;;;;;;;;;;;21.40;99.90;;;;;;5155030;27;19923;-71
2022/08/15 05:53:34;;;;;;;;;;;21.50;99.90;;;;;;5136602;27;19927;-73
2022/08/15 05:56:02;;;;;;;;;;;21.50;99.90;;;;;;5171597;27;20010;-72
2022/08/15 05:58:31;;;;;;;;;;;21.50;99.90;;;;;;5154969;27;19937;-74
2022/08/15 06:01:12;;;;;;;;;;;21.50;99.90;;;;;;5154972;27;19923;-75
2022/08/15 06:03:39;;;;;;;;;;;21.50;99.90;;;;;;5154865;27;19930;-72
2022/08/15 06:06:12;;;;;;;;;;;21.50;99.90;;;;;;5136091;27;19930;-71
2022/08/15 06:08:43;;;;;;;;;;;21.60;99.90;;;;;;5135957;27;20352;-74
2022/08/15 06:11:13;;;;;;;;;;;21.60;99.90;;;;;;5154936;27;20023;-71
2022/08/15 06:13:48;;;;;;;;;;;21.60;99.90;;;;;;5157102;27;20297;-71
2022/08/15 06:16:23;;;;;;;;;;;21.60;99.90;;;;;;5157729;27;19976;-71
2022/08/15 06:18:49;;;;;;;;;;;21.70;99.90;;;;;;5139767;27;19975;-71
2022/08/15 06:21:21;;;;;;;;;;;21.80;99.90;;;;;;5158492;27;20324;-72
2022/08/15 06:24:02;;;;;;;;;;;21.80;99.90;;;;;;5158357;27;19930;-75
2022/08/15 06:26:36;;;;;;;;;;;21.90;99.90;;;;;;5158244;27;19970;-71
2022/08/15 06:29:02;;;;;;;;;;;21.90;99.90;;;;;;5158127;27;19996;-71
2022/08/15 06:31:33;;;;;;;;;;;22.00;99.90;;;;;;5158182;27;20385;-71
2022/08/15 06:34:07;;;;;;;;;;;22.10;99.90;;;;;;5158252;27;20018;-71
2022/08/15 06:36:51;;;;;;;;;;;22.10;99.90;;;;;;5132590;27;19975;-72
2022/08/15 06:39:23;;;;;;;;;;;22.20;99.90;;;;;;5153599;27;20371;-71
2022/08/15 06:42:01;;;;;;;;;;;22.00;99.90;;;;;;5137410;27;20374;-73
2022/08/15 06:44:27;;;;;;;;;;;22.30;99.90;;;;;;5137255;27;19927;-72
2022/08/15 06:46:55;;;;;;;;;;;22.40;99.90;;;;;;5137111;27;20297;-71
2022/08/15 06:49:22;;;;;;;;;;;22.40;99.90;;;;;;5118779;27;19924;-71
2022/08/15 06:51:48;;;;;;;;;;;22.40;99.90;;;;;;5137095;27;19981;-74
2022/08/15 06:54:17;;;;;;;;;;;22.50;99.90;;;;;;5118966;27;19974;-71
2022/08/15 06:56:49;;;;;;;;;;;22.50;99.90;;;;;;5137172;27;19924;-72
2022/08/15 06:59:23;;;;;;;;;;;22.60;99.90;;;;;;5118484;27;19923;-73
2022/08/15 07:02:00;;;;;;;;;;;22.60;99.90;;;;;;5136921;27;19930;-74
2022/08/15 07:04:32;;;;;;;;;;;22.60;99.90;;;;;;5118431;27;19923;-73
2022/08/15 07:07:02;;;;;;;;;;;22.70;99.90;;;;;;5136763;27;20374;-71
2022/08/15 07:09:28;;;;;;;;;;;22.70;99.90;;;;;;5136921;27;20014;-73
2022/08/15 07:12:14;;;;;;;;;;;22.70;99.90;;;;;;5118332;27;20382;-75
2022/08/15 07:14:39;;;;;;;;;;;22.30;99.90;;;;;;5135940;27;19924;-72
2022/08/15 07:17:15;;;;;;;;;;;22.80;99.90;;;;;;5136554;27;19968;-74
2022/08/15 07:19:40;;;;;;;;;;;22.80;99.90;;;;;;5136720;27;19931;-71
2022/08/15 07:22:07;;;;;;;;;;;22.80;99.90;;;;;;5136614;27;19923;-72
2022/08/15 07:24:33;;;;;;;;;;;22.80;99.90;;;;;;5135467;27;19930;-72
2022/08/15 07:26:59;;;;;;;;;;;22.90;99.90;;;;;;5136248;27;19931;-73
2022/08/15 07:29:34;;;;;;;;;;;22.90;99.90;;;;;;5118232;27;19930;-73
2022/08/15 07:32:06;;;;;;;;;;;22.90;99.90;;;;;;5136259;27;20076;-71
2022/08/15 07:34:31;;;;;;;;;;;23.00;99.90;;;;;;5136392;27;20381;-71
2022/08/15 07:37:02;;;;;;;;;;;23.00;99.90;;;;;;5146946;27;19923;-72
2022/08/15 07:39:36;;;;;;;;;;;23.10;99.90;;;;;;5156963;27;19923;-73
2022/08/15 07:42:14;;;;;;;;;;;23.10;99.90;;;;;;5156206;27;19955;-70
2022/08/15 07:44:48;;;;;;;;;;;23.10;99.90;;;;;;5143802;27;19923;-71
2022/08/15 07:47:19;;;;;;;;;;;23.20;99.90;;;;;;5156771;27;19923;-74
2022/08/15 07:49:55;;;;;;;;;;;23.30;99.90;;;;;;5138121;27;19975;-71
2022/08/15 07:52:21;;;;;;;;;;;23.30;99.90;;;;;;5156714;27;20025;-71
2022/08/15 07:54:51;;;;;;;;;;;23.30;99.90;;;;;;5137587;27;20026;-71
2022/08/15 07:57:21;;;;;;;;;;;23.30;99.90;;;;;;5156533;27;20029;-70
2022/08/15 08:00:07;;;;;;;;;;;23.30;99.90;;;;;;5156467;27;19923;-72
2022/08/15 08:02:36;;;;;;;;;;;23.30;99.90;;;;;;5156527;27;19927;-71
2022/08/15 08:05:02;;;;;;;;;;;23.40;99.90;;;;;;5156356;27;19927;-71
2022/08/15 08:07:30;;;;;;;;;;;23.40;99.90;;;;;;5156341;27;19923;-72
2022/08/15 08:10:01;;;;;;;;;;;23.50;99.90;;;;;;5137933;27;19962;-72
2022/08/15 08:12:27;;;;;;;;;;;23.50;99.90;;;;;;5148510;27;20432;-71
2022/08/15 08:15:02;;;;;;;;;;;23.60;99.90;;;;;;5129656;27;19985;-73
2022/08/15 08:17:50;;;;;;;;;;;23.70;99.90;;;;;;5148091;27;20314;-74
2022/08/15 08:20:21;;;;;;;;;;;23.90;99.90;;;;;;5155956;27;20343;-72
2022/08/15 08:22:52;;;;;;;;;;;24.00;99.90;;;;;;5156270;27;19991;-73
2022/08/15 08:25:21;;;;;;;;;;;24.10;99.90;;;;;;5155873;27;20300;-72
2022/08/15 08:27:49;;;;;;;;;;;24.20;99.90;;;;;;5155944;27;20302;-71
2022/08/15 08:30:19;;;;;;;;;;;24.30;99.90;;;;;;5156010;27;19930;-72
2022/08/15 08:32:50;;;;;;;;;;;24.40;99.90;;;;;;5155788;27;19923;-72
2022/08/15 08:35:22;;;;;;;;;;;24.40;99.90;;;;;;5155698;27;19923;-71
2022/08/15 08:37:57;;;;;;;;;;;24.50;99.90;;;;;;5155397;27;19923;-74
2022/08/15 08:43:19;;;;;;;;;;;24.60;99.90;;;;;;5155789;27;19979;-74
2022/08/15 08:45:47;;;;;;;;;;;24.60;99.90;;;;;;5137477;27;19983;-72
2022/08/15 08:48:32;;;;;;;;;;;24.60;99.90;;;;;;5155776;27;19923;-72
2022/08/15 08:51:14;;;;;;;;;;;24.70;99.90;;;;;;5155593;27;20361;-73
2022/08/15 08:53:40;;;;;;;;;;;24.70;99.90;;;;;;5155478;27;19968;-73
2022/08/15 08:56:16;;;;;;;;;;;24.70;99.90;;;;;;5155459;27;19923;-70
2022/08/15 08:58:47;;;;;;;;;;;24.70;99.90;;;;;;5155550;27;19930;-72
2022/08/15 09:01:14;;;;;;;;;;;24.80;99.90;;;;;;5155605;27;19927;-73
2022/08/15 09:03:42;;;;;;;;;;;24.80;99.90;;;;;;5137294;27;19923;-73
2022/08/15 09:06:09;;;;;;;;;;;24.90;99.90;;;;;;5155384;27;20013;-73
2022/08/15 09:08:38;;;;;;;;;;;24.90;99.90;;;;;;5155330;27;19967;-73
2022/08/15 09:11:05;;;;;;;;;;;25.00;99.90;;;;;;5155594;27;19930;-71
2022/08/15 09:13:35;;;;;;;;;;;25.10;99.90;;;;;;5155129;27;20351;-73
2022/08/15 09:16:08;;;;;;;;;;;25.20;99.90;;;;;;5155362;27;19974;-70
2022/08/15 09:18:38;;;;;;;;;;;25.20;99.90;;;;;;5155221;27;20427;-71
2022/08/15 09:21:04;;;;;;;;;;;25.30;99.90;;;;;;5155242;27;20018;-71
2022/08/15 09:23:34;;;;;;;;;;;25.40;99.90;;;;;;5136270;27;19977;-71
2022/08/15 09:26:24;;;;;;;;;;;25.70;99.90;;;;;;5136968;27;19992;-71
2022/08/15 09:28:59;;;;;;;;;;;25.60;99.90;;;;;;5155133;27;20019;-71
2022/08/15 09:31:26;;;;;;;;;;;25.80;99.90;;;;;;5137026;27;20319;-71
2022/08/15 09:34:10;;;;;;;;;;;25.90;99.90;;;;;;5154979;27;20030;-71
2022/08/15 09:36:37;;;;;;;;;;;26.10;99.90;;;;;;5154059;27;19924;-73
2022/08/15 09:39:22;;;;;;;;;;;26.20;99.90;;;;;;5155333;27;19952;-70
2022/08/15 09:41:53;;;;;;;;;;;26.40;99.90;;;;;;5136822;27;19923;-74
2022/08/15 09:44:28;;;;;;;;;;;26.50;99.90;;;;;;5154621;27;20365;-73
2022/08/15 09:46:54;;;;;;;;;;;26.60;99.90;;;;;;5154992;27;19984;-74
2022/08/15 09:49:27;;;;;;;;;;;26.60;99.90;;;;;;5159107;27;20389;-73
2022/08/15 09:52:11;;;;;;;;;;;26.70;99.90;;;;;;5159016;27;20377;-71
2022/08/15 09:55:02;;;;;;;;;;;26.80;99.90;;;;;;5158934;27;19923;-71
2022/08/15 09:57:28;;;;;;;;;;;26.80;99.90;;;;;;5115275;28;19924;-74
2022/08/15 10:00:17;;;;;;;;;;;26.90;99.90;;;;;;5115316;28;20359;-71
2022/08/15 10:02:43;;;;;;;;;;;27.00;99.90;;;;;;5107029;28;19934;-72
2022/08/15 10:05:22;;;;;;;;;;;27.10;99.90;;;;;;5115346;28;19923;-72
2022/08/15 10:07:50;;;;;;;;;;;27.20;99.90;;;;;;5115251;28;19924;-74
2022/08/15 10:10:20;;;;;;;;;;;27.40;99.90;;;;;;5115234;28;19959;-74
2022/08/15 10:13:05;;;;;;;;;;;27.40;99.90;;;;;;5115058;28;20428;-71
2022/08/15 10:15:43;;;;;;;;;;;27.50;99.90;;;;;;5115018;28;19924;-71
2022/08/15 10:18:27;;;;;;;;;;;27.60;99.90;;;;;;5115020;28;19923;-73
2022/08/15 10:20:52;;;;;;;;;;;27.70;99.90;;;;;;5098017;28;19927;-72
2022/08/15 10:23:20;;;;;;;;;;;27.70;99.90;;;;;;5098271;28;19973;-72
2022/08/15 10:25:47;;;;;;;;;;;27.80;99.90;;;;;;5114938;28;19924;-71
2022/08/15 10:28:13;;;;;;;;;;;27.90;99.90;;;;;;5114681;28;19923;-71
2022/08/15 10:30:46;;;;;;;;;;;27.90;99.90;;;;;;5114871;28;20347;-71
2022/08/15 10:33:30;;;;;;;;;;;28.00;98.00;;;;;;5100569;27;19927;-72
2022/08/15 10:36:13;;;;;;;;;;;28.00;98.90;;;;;;5158240;27;19930;-73
2022/08/15 10:38:44;;;;;;;;;;;28.10;99.70;;;;;;5158150;27;19945;-71
2022/08/15 10:41:46;;;;;;;;;;;28.00;99.90;;;;;;5157942;27;19923;-72
2022/08/15 10:44:20;;;;;;;;;;;28.00;99.90;;;;;;5114396;28;19950;-72
2022/08/15 10:47:04;;;;;;;;;;;28.00;99.90;;;;;;5114353;28;20348;-72
2022/08/15 10:49:35;;;;;;;;;;;28.00;98.30;;;;;;5114334;28;20287;-71
2022/08/15 10:52:12;;;;;;;;;;;28.00;98.80;;;;;;5097604;28;20367;-72
2022/08/15 10:54:42;;;;;;;;;;;28.00;98.70;;;;;;5114400;28;19946;-71
2022/08/15 10:57:08;;;;;;;;;;;28.00;97.10;;;;;;5114364;28;20286;-72
2022/08/15 10:59:35;;;;;;;;;;;27.90;98.30;;;;;;5097278;28;19953;-71
2022/08/15 11:02:21;;;;;;;;;;;27.90;98.50;;;;;;5114208;28;20009;-72
2022/08/15 11:04:48;;;;;;;;;;;27.90;98.10;;;;;;5113975;28;19938;-72
2022/08/15 11:07:33;;;;;;;;;;;27.90;98.10;;;;;;5114129;28;20011;-74
2022/08/15 11:10:09;;;;;;;;;;;27.90;98.50;;;;;;5096942;28;19924;-72
2022/08/15 11:12:36;;;;;;;;;;;27.90;96.90;;;;;;5113839;28;20012;-72
2022/08/15 11:15:13;;;;;;;;;;;27.90;96.50;;;;;;5113825;28;19930;-72
2022/08/15 11:17:44;;;;;;;;;;;27.90;97.30;;;;;;5126497;27;19930;-73
2022/08/15 11:20:15;;;;;;;;;;;27.90;96.90;;;;;;5157444;27;20342;-72
2022/08/15 11:22:55;;;;;;;;;;;27.90;98.10;;;;;;5157314;27;19948;-71
2022/08/15 11:25:41;;;;;;;;;;;27.90;99.50;;;;;;5157409;27;20382;-72
2022/08/15 11:28:11;;;;;;;;;;;27.90;98.80;;;;;;5157199;27;19923;-73
2022/08/15 11:30:39;;;;;;;;;;;27.90;97.90;;;;;;5157187;27;19950;-72
2022/08/15 11:33:21;;;;;;;;;;;28.00;98.00;;;;;;5157051;27;19923;-71
2022/08/15 11:35:48;;;;;;;;;;;28.00;97.60;;;;;;5156979;27;19923;-75
2022/08/15 11:38:16;;;;;;;;;;;28.00;97.70;;;;;;5157071;27;19930;-74
2022/08/15 11:40:42;;;;;;;;;;;28.00;97.20;;;;;;5156978;27;20286;-71
2022/08/15 11:43:13;;;;;;;;;;;27.80;97.50;;;;;;5138606;27;19924;-73
2022/08/15 11:45:41;;;;;;;;;;;28.00;99.90;;;;;;5138360;27;19927;-71
2022/08/15 11:48:17;;;;;;;;;;;28.00;99.90;;;;;;5156663;27;19923;-72
2022/08/15 11:50:54;;;;;;;;;;;27.90;99.90;;;;;;5163632;27;19934;-71
2022/08/15 11:53:19;;;;;;;;;;;27.90;99.90;;;;;;5177616;27;19927;-74
2022/08/15 11:55:46;;;;;;;;;;;27.90;99.90;;;;;;5177557;27;20301;-71
2022/08/15 11:58:11;;;;;;;;;;;27.90;99.90;;;;;;5177381;27;19982;-74
2022/08/15 12:00:37;;;;;;;;;;;27.80;99.90;;;;;;5159007;27;20440;-70
2022/08/15 12:03:16;;;;;;;;;;;27.80;99.90;;;;;;5177255;27;19937;-71
2022/08/15 12:05:43;;;;;;;;;;;27.70;99.90;;;;;;5158633;27;19923;-71
2022/08/15 12:08:08;;;;;;;;;;;27.70;99.90;;;;;;5177305;27;20010;-71
2022/08/15 12:10:37;;;;;;;;;;;27.60;99.90;;;;;;5158347;27;20453;-75
2022/08/15 12:13:23;;;;;;;;;;;27.50;99.90;;;;;;5158856;27;19930;-71
2022/08/15 12:15:49;;;;;;;;;;;27.50;99.90;;;;;;5177328;27;19923;-75
2022/08/15 12:18:17;;;;;;;;;;;27.40;99.90;;;;;;5177353;27;19930;-72
2022/08/15 12:20:48;;;;;;;;;;;27.40;99.90;;;;;;5177096;27;19984;-73
2022/08/15 12:23:19;;;;;;;;;;;27.40;99.90;;;;;;5158622;27;20292;-72
2022/08/15 12:25:49;;;;;;;;;;;27.40;99.90;;;;;;5176850;27;20021;-71
2022/08/15 12:28:15;;;;;;;;;;;27.50;99.90;;;;;;5176719;27;19923;-70
2022/08/15 12:30:40;;;;;;;;;;;27.50;99.90;;;;;;5176998;27;19930;-71
2022/08/15 12:33:07;;;;;;;;;;;27.50;99.90;;;;;;5176984;27;19947;-71
2022/08/15 12:35:34;;;;;;;;;;;27.50;99.90;;;;;;5176910;27;19935;-71
2022/08/15 12:38:00;;;;;;;;;;;27.60;99.90;;;;;;5176621;27;20393;-71
2022/08/15 12:40:25;;;;;;;;;;;27.60;99.90;;;;;;5176518;27;20021;-75
2022/08/15 12:42:51;;;;;;;;;;;27.60;99.90;;;;;;5176675;27;19923;-72
2022/08/15 12:45:18;;;;;;;;;;;27.60;99.90;;;;;;5176532;27;19923;-74
2022/08/15 12:47:44;;;;;;;;;;;27.60;99.90;;;;;;5158047;27;19930;-71
2022/08/15 12:50:10;;;;;;;;;;;27.60;99.90;;;;;;5158325;27;20017;-70
2022/08/15 12:52:36;;;;;;;;;;;27.60;99.90;;;;;;5176513;27;20404;-71
2022/08/15 12:55:02;;;;;;;;;;;27.60;99.90;;;;;;5176405;27;19923;-72
2022/08/15 12:57:28;;;;;;;;;;;27.60;99.90;;;;;;5176311;27;19923;-73
2022/08/15 12:59:54;;;;;;;;;;;27.70;99.90;;;;;;5158197;27;20009;-70
2022/08/15 13:02:20;;;;;;;;;;;27.70;99.90;;;;;;5176520;27;19971;-73
2022/08/15 13:04:49;;;;;;;;;;;27.70;99.90;;;;;;5176403;27;19923;-73
2022/08/15 13:07:16;;;;;;;;;;;27.70;99.90;;;;;;5176195;27;19930;-74
2022/08/15 13:09:42;;;;;;;;;;;27.70;99.90;;;;;;5176308;27;20021;-72
2022/08/15 13:12:08;;;;;;;;;;;27.70;99.90;;;;;;5175990;27;19981;-71
2022/08/15 13:14:33;;;;;;;;;;;27.70;99.90;;;;;;5176269;27;19931;-72
2022/08/15 13:16:59;;;;;;;;;;;27.70;99.90;;;;;;5176249;27;19922;-73
2022/08/15 13:19:26;;;;;;;;;;;27.70;99.90;;;;;;5176259;27;19972;-73
2022/08/15 13:24:37;;;;;;;;;;;27.80;99.90;;;;;;5180354;27;20412;-71
2022/08/15 13:27:03;;;;;;;;;;;27.70;99.90;;;;;;5161725;27;19931;-73
2022/08/15 13:29:30;;;;;;;;;;;27.10;99.90;;;;;;5180523;27;19923;-71
2022/08/15 13:31:56;;;;;;;;;;;27.70;99.90;;;;;;5162143;27;19923;-72
2022/08/15 13:34:22;;;;;;;;;;;27.70;99.90;;;;;;5180354;27;19923;-74
2022/08/15 13:36:49;;;;;;;;;;;27.80;99.90;;;;;;5180302;27;19929;-71
2022/08/15 13:39:20;;;;;;;;;;;27.80;99.90;;;;;;5180150;27;19922;-73
2022/08/15 13:41:47;;;;;;;;;;;27.90;99.90;;;;;;5180026;27;19929;-72
2022/08/15 13:44:13;;;;;;;;;;;28.00;99.90;;;;;;5161553;27;19982;-72
2022/08/15 13:46:39;;;;;;;;;;;28.10;99.90;;;;;;5161581;27;20010;-71
2022/08/15 13:49:05;;;;;;;;;;;28.10;99.90;;;;;;5161988;27;19966;-71
2022/08/15 13:51:38;;;;;;;;;;;28.20;99.90;;;;;;5161642;27;19922;-73
2022/08/15 13:54:04;;;;;;;;;;;28.20;99.90;;;;;;5179861;27;20348;-71
2022/08/15 13:56:31;;;;;;;;;;;28.30;99.90;;;;;;5161521;27;19923;-71
2022/08/15 13:58:56;;;;;;;;;;;28.30;99.90;;;;;;5161528;27;20017;-71
2022/08/15 14:01:23;;;;;;;;;;;28.30;99.90;;;;;;5161497;27;19992;-71
2022/08/15 14:03:56;;;;;;;;;;;28.40;99.90;;;;;;5179773;27;19923;-71
2022/08/15 14:06:22;;;;;;;;;;;28.40;99.90;;;;;;5179597;27;19923;-71
2022/08/15 14:08:48;;;;;;;;;;;28.40;99.90;;;;;;5179549;27;19975;-71
2022/08/15 14:11:13;;;;;;;;;;;28.40;99.90;;;;;;5161433;27;19923;-72
2022/08/15 14:13:39;;;;;;;;;;;28.40;99.90;;;;;;5143678;27;20342;-71
2022/08/15 14:16:05;;;;;;;;;;;28.40;99.90;;;;;;5161189;27;19923;-71
2022/08/15 14:18:35;;;;;;;;;;;28.40;99.90;;;;;;5179546;27;19930;-71
2022/08/15 14:21:01;;;;;;;;;;;28.30;99.90;;;;;;5179392;27;19973;-71
2022/08/15 14:23:27;;;;;;;;;;;28.20;99.90;;;;;;5179228;27;20296;-73
2022/08/15 14:25:52;;;;;;;;;;;28.10;99.90;;;;;;5160752;27;19974;-71
2022/08/15 14:28:18;;;;;;;;;;;28.20;99.90;;;;;;5179323;27;19923;-73
2022/08/15 14:30:44;;;;;;;;;;;28.00;99.90;;;;;;5179318;27;19991;-71
2022/08/15 14:33:10;;;;;;;;;;;27.90;99.90;;;;;;5178493;27;19972;-71